Time;durP1;ratioP1;P1;durP2;ratioP2;P2;SDS_P1;SDS_P2;PMS_P1;PMS_P2;Temp;Humidity;BMP_temperature;BMP_pressure;BME280_temperature;BME280_humidity;BME280_pressure;Samples;Min_cycle;Max_cycle;Signal;HPM_P1;HPM_P2
2023/08/15 00:01:14;;;;;;;;;;;23.30;87.80;;;;;;5093697;28;20269;-72
2023/08/15 00:03:39;;;;;;;;;;;23.30;87.80;;;;;;5093784;28;19908;-72
2023/08/15 00:06:05;;;;;;;;;;;23.30;87.80;;;;;;5094049;28;19908;-72
2023/08/15 00:08:30;;;;;;;;;;;23.30;87.80;;;;;;5094029;28;19951;-71
2023/08/15 00:10:55;;;;;;;;;;;23.30;87.80;;;;;;5094075;28;19915;-71
2023/08/15 00:13:21;;;;;;;;;;;23.30;87.80;;;;;;5094212;28;19912;-71
2023/08/15 00:15:46;;;;;;;;;;;23.30;87.80;;;;;;5093948;28;19914;-71
2023/08/15 00:18:12;;;;;;;;;;;23.30;87.80;;;;;;5093624;28;19915;-71
2023/08/15 00:20:37;;;;;;;;;;;23.30;87.80;;;;;;5094034;28;20286;-70
2023/08/15 00:23:03;;;;;;;;;;;23.30;87.80;;;;;;5093796;28;19908;-70
2023/08/15 00:25:28;;;;;;;;;;;23.30;87.80;;;;;;5093888;28;19908;-70
2023/08/15 00:27:54;;;;;;;;;;;23.30;87.80;;;;;;5093516;28;20355;-71
2023/08/15 00:30:19;;;;;;;;;;;23.30;87.80;;;;;;5093742;28;20278;-72
2023/08/15 00:32:45;;;;;;;;;;;23.30;87.80;;;;;;5092481;28;19915;-71
2023/08/15 00:35:11;;;;;;;;;;;23.30;87.80;;;;;;5093734;28;19909;-71
2023/08/15 00:37:36;;;;;;;;;;;23.30;87.80;;;;;;5093451;28;19912;-72
2023/08/15 00:40:02;;;;;;;;;;;23.30;87.80;;;;;;5093413;28;19912;-71
2023/08/15 00:42:27;;;;;;;;;;;23.30;87.80;;;;;;5094738;28;19924;-70
2023/08/15 00:44:53;;;;;;;;;;;23.30;87.80;;;;;;5097078;28;19928;-71
2023/08/15 00:47:18;;;;;;;;;;;23.30;87.80;;;;;;5097411;28;20408;-70
2023/08/15 00:49:44;;;;;;;;;;;23.30;87.80;;;;;;5097363;28;19919;-71
2023/08/15 00:52:12;;;;;;;;;;;23.30;87.80;;;;;;5097098;28;19960;-71
2023/08/15 00:54:38;;;;;;;;;;;23.30;87.80;;;;;;5097044;28;19973;-70
2023/08/15 00:57:05;;;;;;;;;;;23.30;87.70;;;;;;5096895;28;19915;-71
2023/08/15 00:59:30;;;;;;;;;;;23.30;87.80;;;;;;5097191;28;20263;-71
2023/08/15 01:01:58;;;;;;;;;;;23.30;87.70;;;;;;5096835;28;19916;-71
2023/08/15 01:04:23;;;;;;;;;;;23.30;87.80;;;;;;5097156;28;19953;-71
2023/08/15 01:06:49;;;;;;;;;;;23.30;87.80;;;;;;5097013;28;19961;-70
2023/08/15 01:09:15;;;;;;;;;;;23.40;87.80;;;;;;5096691;28;19912;-70
2023/08/15 01:11:46;;;;;;;;;;;23.30;87.70;;;;;;5096610;28;19915;-70
2023/08/15 01:14:14;;;;;;;;;;;23.30;87.70;;;;;;5096707;28;19908;-70
2023/08/15 01:16:43;;;;;;;;;;;23.30;87.70;;;;;;5096476;28;19942;-70
2023/08/15 01:19:29;;;;;;;;;;;23.30;87.80;;;;;;5096722;28;19912;-70
2023/08/15 01:21:57;;;;;;;;;;;23.30;87.80;;;;;;5096612;28;19917;-70
2023/08/15 01:24:23;;;;;;;;;;;23.30;87.80;;;;;;5096662;28;19908;-70
2023/08/15 01:26:48;;;;;;;;;;;23.30;87.70;;;;;;5096420;28;19977;-70
2023/08/15 01:29:14;;;;;;;;;;;23.30;87.70;;;;;;5096687;28;19908;-70
2023/08/15 01:31:42;;;;;;;;;;;23.40;87.80;;;;;;5096703;28;19908;-70
2023/08/15 01:34:08;;;;;;;;;;;23.30;87.70;;;;;;5096353;28;19973;-69
2023/08/15 01:36:36;;;;;;;;;;;23.30;87.80;;;;;;5096307;28;20343;-69
2023/08/15 01:39:03;;;;;;;;;;;23.30;87.80;;;;;;5096232;28;19955;-70
2023/08/15 01:41:31;;;;;;;;;;;23.40;87.80;;;;;;5096395;28;19920;-69
2023/08/15 01:43:57;;;;;;;;;;;23.30;87.70;;;;;;5096238;28;19912;-70
2023/08/15 01:46:22;;;;;;;;;;;23.30;87.70;;;;;;5096776;28;19982;-70
2023/08/15 01:48:48;;;;;;;;;;;23.40;87.80;;;;;;5096086;28;19912;-70
2023/08/15 01:51:13;;;;;;;;;;;23.30;87.70;;;;;;5096363;28;19908;-70
2023/08/15 01:53:39;;;;;;;;;;;23.30;87.80;;;;;;5095839;28;20349;-70
2023/08/15 01:56:04;;;;;;;;;;;23.40;87.80;;;;;;5096319;28;19919;-69
2023/08/15 01:58:30;;;;;;;;;;;23.40;87.80;;;;;;5096156;28;19908;-69
2023/08/15 02:00:56;;;;;;;;;;;23.40;87.80;;;;;;5096113;28;20014;-70
2023/08/15 02:03:22;;;;;;;;;;;23.30;87.70;;;;;;5095773;28;20312;-69
2023/08/15 02:05:47;;;;;;;;;;;23.40;87.80;;;;;;5096002;28;19908;-70
2023/08/15 02:08:13;;;;;;;;;;;23.40;87.80;;;;;;5095937;28;20355;-70
2023/08/15 02:10:38;;;;;;;;;;;23.40;87.80;;;;;;5095546;28;19912;-70
2023/08/15 02:13:03;;;;;;;;;;;23.40;87.80;;;;;;5095861;28;19908;-70
2023/08/15 02:15:29;;;;;;;;;;;23.40;87.80;;;;;;5095776;28;19908;-71
2023/08/15 02:17:54;;;;;;;;;;;23.40;87.80;;;;;;5095570;28;19908;-71
2023/08/15 02:20:20;;;;;;;;;;;23.40;87.80;;;;;;5095352;28;19908;-71
2023/08/15 02:22:45;;;;;;;;;;;23.40;88.30;;;;;;5094365;28;20260;-70
2023/08/15 02:25:11;;;;;;;;;;;23.40;87.80;;;;;;5095357;28;19909;-71
2023/08/15 02:27:36;;;;;;;;;;;23.40;87.80;;;;;;5095320;28;19908;-70
2023/08/15 02:30:03;;;;;;;;;;;23.40;87.80;;;;;;5095271;28;20419;-70
2023/08/15 02:32:28;;;;;;;;;;;23.40;87.80;;;;;;5095498;28;19918;-71
2023/08/15 02:34:54;;;;;;;;;;;23.40;87.80;;;;;;5095466;28;19908;-70
2023/08/15 02:37:19;;;;;;;;;;;23.40;87.80;;;;;;5095118;28;19908;-70
2023/08/15 02:39:45;;;;;;;;;;;23.40;87.80;;;;;;5095127;28;19908;-70
2023/08/15 02:42:10;;;;;;;;;;;23.40;87.80;;;;;;5094960;28;20306;-70
2023/08/15 02:44:36;;;;;;;;;;;23.40;87.80;;;;;;5094911;28;19926;-70
2023/08/15 02:47:01;;;;;;;;;;;23.40;87.80;;;;;;5095368;28;19951;-69
2023/08/15 02:49:27;;;;;;;;;;;23.40;87.80;;;;;;5094972;28;20374;-70
2023/08/15 02:51:53;;;;;;;;;;;23.40;87.80;;;;;;5094826;28;19908;-70
2023/08/15 02:54:18;;;;;;;;;;;23.40;87.80;;;;;;5095248;28;19935;-70
2023/08/15 02:56:44;;;;;;;;;;;23.40;87.80;;;;;;5094802;28;19908;-70
2023/08/15 02:59:09;;;;;;;;;;;23.40;87.80;;;;;;5095049;28;19962;-70
2023/08/15 03:01:35;;;;;;;;;;;23.40;87.80;;;;;;5094945;28;20339;-70
2023/08/15 03:04:00;;;;;;;;;;;23.40;87.80;;;;;;5095339;28;19930;-65
2023/08/15 03:06:26;;;;;;;;;;;23.40;87.80;;;;;;5093937;28;19916;-70
2023/08/15 03:08:51;;;;;;;;;;;23.40;87.80;;;;;;5094788;28;20418;-70
2023/08/15 03:11:16;;;;;;;;;;;23.40;87.80;;;;;;5094760;28;19947;-70
2023/08/15 03:13:42;;;;;;;;;;;23.40;87.80;;;;;;5094316;28;19908;-70
2023/08/15 03:16:07;;;;;;;;;;;23.40;87.80;;;;;;5094680;28;19915;-70
2023/08/15 03:18:33;;;;;;;;;;;23.40;87.80;;;;;;5094410;28;19916;-70
2023/08/15 03:20:59;;;;;;;;;;;23.40;87.80;;;;;;5094325;28;19920;-70
2023/08/15 03:23:25;;;;;;;;;;;23.40;87.80;;;;;;5094560;28;19972;-70
2023/08/15 03:26:09;;;;;;;;;;;23.40;87.80;;;;;;5094537;28;19952;-70
2023/08/15 03:28:34;;;;;;;;;;;23.40;87.80;;;;;;5093348;28;19915;-70
2023/08/15 03:31:06;;;;;;;;;;;23.40;87.80;;;;;;5094461;28;19912;-70
2023/08/15 03:33:32;;;;;;;;;;;23.40;87.80;;;;;;5094704;28;19908;-69
2023/08/15 03:35:58;;;;;;;;;;;23.40;87.80;;;;;;5094129;28;19908;-70
2023/08/15 03:38:23;;;;;;;;;;;23.40;87.80;;;;;;5094035;28;19931;-70
2023/08/15 03:40:49;;;;;;;;;;;23.40;87.80;;;;;;5093859;28;19977;-69
2023/08/15 03:43:15;;;;;;;;;;;23.40;87.80;;;;;;5094198;28;20008;-70
2023/08/15 03:45:41;;;;;;;;;;;23.40;87.80;;;;;;5093737;28;19960;-69
2023/08/15 03:48:07;;;;;;;;;;;23.40;87.80;;;;;;5093806;28;19912;-70
2023/08/15 03:50:32;;;;;;;;;;;23.40;87.80;;;;;;5093964;28;20282;-69
2023/08/15 03:52:58;;;;;;;;;;;23.40;87.80;;;;;;5093940;28;19912;-71
2023/08/15 03:55:23;;;;;;;;;;;23.40;87.80;;;;;;5093944;28;19908;-70
2023/08/15 03:57:49;;;;;;;;;;;23.40;87.80;;;;;;5094213;28;20394;-70
2023/08/15 04:00:18;;;;;;;;;;;23.40;87.80;;;;;;5093752;28;19918;-70
2023/08/15 04:02:44;;;;;;;;;;;23.40;87.80;;;;;;5093826;28;19909;-70
2023/08/15 04:05:09;;;;;;;;;;;23.40;87.80;;;;;;5094018;28;19914;-70
2023/08/15 04:07:35;;;;;;;;;;;23.40;87.80;;;;;;5093942;28;20252;-70
2023/08/15 04:10:00;;;;;;;;;;;23.40;87.80;;;;;;5093674;28;19962;-70
2023/08/15 04:12:26;;;;;;;;;;;23.40;87.80;;;;;;5093695;28;19909;-70
2023/08/15 04:14:51;;;;;;;;;;;23.40;87.80;;;;;;5093983;28;19952;-70
2023/08/15 04:17:17;;;;;;;;;;;23.40;87.80;;;;;;5096532;28;19990;-70
2023/08/15 04:19:42;;;;;;;;;;;23.40;87.80;;;;;;5097714;28;19940;-70
2023/08/15 04:22:08;;;;;;;;;;;23.40;87.80;;;;;;5098044;28;19920;-70
2023/08/15 04:24:33;;;;;;;;;;;23.40;87.80;;;;;;5097967;28;20340;-69
2023/08/15 04:27:00;;;;;;;;;;;23.40;87.80;;;;;;5097841;28;19908;-70
2023/08/15 04:29:26;;;;;;;;;;;23.40;87.80;;;;;;5097577;28;20011;-70
2023/08/15 04:31:51;;;;;;;;;;;23.40;87.80;;;;;;5097612;28;20033;-70
2023/08/15 04:34:17;;;;;;;;;;;23.40;87.80;;;;;;5097364;28;19908;-70
2023/08/15 04:36:46;;;;;;;;;;;23.40;87.90;;;;;;5097720;28;20316;-70
2023/08/15 04:39:12;;;;;;;;;;;23.40;87.90;;;;;;5097712;28;19915;-70
2023/08/15 04:41:37;;;;;;;;;;;23.40;87.80;;;;;;5097571;28;19916;-70
2023/08/15 04:44:03;;;;;;;;;;;23.40;87.90;;;;;;5097593;28;19994;-69
2023/08/15 04:46:28;;;;;;;;;;;23.40;87.90;;;;;;5098023;28;20401;-70
2023/08/15 04:48:54;;;;;;;;;;;23.40;87.90;;;;;;5097490;28;19957;-69
2023/08/15 04:51:20;;;;;;;;;;;23.40;87.80;;;;;;5097192;28;20003;-69
2023/08/15 04:53:47;;;;;;;;;;;23.40;87.80;;;;;;5096696;28;20343;-69
2023/08/15 04:56:13;;;;;;;;;;;23.40;87.90;;;;;;5097145;28;19916;-70
2023/08/15 04:58:38;;;;;;;;;;;23.40;87.80;;;;;;5096960;28;20419;-70
2023/08/15 05:01:04;;;;;;;;;;;23.40;87.90;;;;;;5097216;28;19934;-69
2023/08/15 05:03:29;;;;;;;;;;;23.40;87.90;;;;;;5097592;28;19912;-68
2023/08/15 05:05:55;;;;;;;;;;;23.40;87.90;;;;;;5096927;28;19908;-70
2023/08/15 05:08:20;;;;;;;;;;;23.40;87.90;;;;;;5097118;28;20373;-70
2023/08/15 05:10:46;;;;;;;;;;;23.40;87.90;;;;;;5097119;28;19961;-70
2023/08/15 05:13:11;;;;;;;;;;;23.40;87.90;;;;;;5097016;28;19909;-70
2023/08/15 05:15:37;;;;;;;;;;;23.40;87.90;;;;;;5097288;28;19908;-70
2023/08/15 05:18:02;;;;;;;;;;;23.40;87.90;;;;;;5097053;28;20373;-70
2023/08/15 05:20:28;;;;;;;;;;;23.40;87.90;;;;;;5097233;28;20305;-70
2023/08/15 05:22:53;;;;;;;;;;;23.40;87.90;;;;;;5096897;28;19947;-70
2023/08/15 05:25:20;;;;;;;;;;;23.40;87.90;;;;;;5096850;28;19994;-70
2023/08/15 05:27:45;;;;;;;;;;;23.50;87.90;;;;;;5096049;28;19961;-70
2023/08/15 05:30:11;;;;;;;;;;;23.50;87.90;;;;;;5096876;28;19912;-70
2023/08/15 05:32:36;;;;;;;;;;;23.50;88.00;;;;;;5096751;28;19909;-70
2023/08/15 05:35:02;;;;;;;;;;;23.50;88.00;;;;;;5096724;28;19908;-70
2023/08/15 05:37:27;;;;;;;;;;;23.50;88.00;;;;;;5096624;28;19948;-70
2023/08/15 05:39:53;;;;;;;;;;;23.50;88.00;;;;;;5096655;28;19953;-70
2023/08/15 05:42:18;;;;;;;;;;;23.50;88.00;;;;;;5096225;28;20393;-70
2023/08/15 05:44:45;;;;;;;;;;;23.50;88.00;;;;;;5096345;28;19921;-70
2023/08/15 05:47:11;;;;;;;;;;;23.50;88.00;;;;;;5096319;28;19958;-69
2023/08/15 05:49:36;;;;;;;;;;;23.50;88.00;;;;;;5096121;28;19912;-69
2023/08/15 05:52:02;;;;;;;;;;;23.50;88.00;;;;;;5096092;28;19915;-69
2023/08/15 05:54:28;;;;;;;;;;;23.50;88.00;;;;;;5096143;28;19908;-69
2023/08/15 05:56:53;;;;;;;;;;;23.50;88.00;;;;;;5095964;28;20038;-70
2023/08/15 05:59:19;;;;;;;;;;;23.50;88.00;;;;;;5095905;28;19923;-69
2023/08/15 06:01:45;;;;;;;;;;;23.50;88.00;;;;;;5095677;28;19923;-69
2023/08/15 06:04:11;;;;;;;;;;;23.50;88.00;;;;;;5096118;28;19915;-70
2023/08/15 06:06:36;;;;;;;;;;;23.50;88.00;;;;;;5096051;28;19908;-69
2023/08/15 06:09:02;;;;;;;;;;;23.50;88.00;;;;;;5095743;28;19962;-70
2023/08/15 06:11:28;;;;;;;;;;;23.50;88.00;;;;;;5095616;28;20490;-70
2023/08/15 06:13:53;;;;;;;;;;;23.50;88.00;;;;;;5095767;28;19914;-69
2023/08/15 06:16:18;;;;;;;;;;;23.50;88.00;;;;;;5095735;28;20263;-70
2023/08/15 06:18:44;;;;;;;;;;;23.50;88.00;;;;;;5095581;28;19955;-69
2023/08/15 06:21:09;;;;;;;;;;;23.50;88.00;;;;;;5095715;28;19916;-69
2023/08/15 06:23:35;;;;;;;;;;;23.50;88.00;;;;;;5095704;28;20335;-69
2023/08/15 06:26:00;;;;;;;;;;;23.50;88.00;;;;;;5095334;28;19908;-70
2023/08/15 06:28:26;;;;;;;;;;;23.50;88.00;;;;;;5095917;28;19991;-69
2023/08/15 06:30:51;;;;;;;;;;;23.50;88.00;;;;;;5095966;28;20239;-69
2023/08/15 06:33:17;;;;;;;;;;;23.50;88.00;;;;;;5095548;28;19909;-69
2023/08/15 06:35:42;;;;;;;;;;;23.50;88.00;;;;;;5095206;28;19908;-69
2023/08/15 06:38:08;;;;;;;;;;;23.50;88.00;;;;;;5095295;28;20378;-68
2023/08/15 06:40:33;;;;;;;;;;;23.50;88.00;;;;;;5094165;28;19931;-69
2023/08/15 06:42:58;;;;;;;;;;;23.50;88.00;;;;;;5094069;28;19912;-69
2023/08/15 06:45:24;;;;;;;;;;;23.50;88.00;;;;;;5095073;28;19924;-69
2023/08/15 06:47:49;;;;;;;;;;;23.50;88.00;;;;;;5095246;28;19995;-69
2023/08/15 06:50:15;;;;;;;;;;;23.50;88.00;;;;;;5095242;28;19908;-69
2023/08/15 06:52:41;;;;;;;;;;;23.50;88.00;;;;;;5095044;28;19908;-69
2023/08/15 06:55:06;;;;;;;;;;;23.50;88.00;;;;;;5094819;28;20010;-69
2023/08/15 06:57:33;;;;;;;;;;;23.50;88.00;;;;;;5095065;28;19955;-69
2023/08/15 06:59:58;;;;;;;;;;;23.50;88.00;;;;;;5094901;28;19912;-69
2023/08/15 07:02:24;;;;;;;;;;;23.50;88.00;;;;;;5095029;28;20324;-69
2023/08/15 07:04:50;;;;;;;;;;;23.50;88.00;;;;;;5094920;28;19916;-69
2023/08/15 07:07:16;;;;;;;;;;;23.50;88.00;;;;;;5094555;28;19908;-69
2023/08/15 07:09:41;;;;;;;;;;;23.50;88.00;;;;;;5094459;28;20389;-69
2023/08/15 07:12:07;;;;;;;;;;;23.50;88.00;;;;;;5094874;28;19908;-69
2023/08/15 07:14:32;;;;;;;;;;;23.60;88.10;;;;;;5094610;28;19908;-70
2023/08/15 07:16:58;;;;;;;;;;;23.50;88.00;;;;;;5094451;28;19912;-70
2023/08/15 07:19:24;;;;;;;;;;;23.50;88.00;;;;;;5093351;28;19908;-70
2023/08/15 07:21:49;;;;;;;;;;;23.50;88.00;;;;;;5094645;28;19962;-70
2023/08/15 07:24:17;;;;;;;;;;;23.50;88.00;;;;;;5094601;28;20305;-69
2023/08/15 07:26:42;;;;;;;;;;;23.50;88.00;;;;;;5094143;28;19908;-69
2023/08/15 07:29:08;;;;;;;;;;;23.50;88.00;;;;;;5094165;28;19918;-69
2023/08/15 07:31:33;;;;;;;;;;;23.50;88.00;;;;;;5094130;28;19915;-70
2023/08/15 07:33:59;;;;;;;;;;;23.50;88.00;;;;;;5093053;28;19908;-70
2023/08/15 07:36:24;;;;;;;;;;;23.50;88.00;;;;;;5094055;28;19908;-70
2023/08/15 07:38:50;;;;;;;;;;;23.50;88.00;;;;;;5094339;28;19915;-70
2023/08/15 07:41:15;;;;;;;;;;;23.50;88.10;;;;;;5094279;28;20291;-70
2023/08/15 07:43:41;;;;;;;;;;;23.50;88.00;;;;;;5094223;28;20045;-70
2023/08/15 07:46:06;;;;;;;;;;;23.50;88.00;;;;;;5094472;28;19931;-69
2023/08/15 07:48:32;;;;;;;;;;;23.50;88.00;;;;;;5094071;28;19915;-70
2023/08/15 07:50:57;;;;;;;;;;;23.50;88.00;;;;;;5094046;28;19909;-70
2023/08/15 07:53:23;;;;;;;;;;;23.50;88.00;;;;;;5094346;28;19958;-70
2023/08/15 07:55:49;;;;;;;;;;;23.50;88.00;;;;;;5093848;28;19999;-70
2023/08/15 07:58:14;;;;;;;;;;;23.50;88.00;;;;;;5093701;28;19944;-71
2023/08/15 08:00:41;;;;;;;;;;;23.50;88.10;;;;;;5093904;28;19915;-71
2023/08/15 08:03:07;;;;;;;;;;;23.50;88.10;;;;;;5093928;28;19912;-70
2023/08/15 08:05:33;;;;;;;;;;;23.50;88.10;;;;;;5093956;28;20367;-71
2023/08/15 08:07:58;;;;;;;;;;;23.50;88.10;;;;;;5093975;28;19912;-72
2023/08/15 08:10:24;;;;;;;;;;;23.50;88.10;;;;;;5093655;28;19915;-70
2023/08/15 08:12:49;;;;;;;;;;;23.50;88.10;;;;;;5093943;28;19915;-71
2023/08/15 08:15:15;;;;;;;;;;;23.50;88.10;;;;;;5093957;28;19964;-70
2023/08/15 08:17:40;;;;;;;;;;;23.50;88.10;;;;;;5093719;28;19915;-70
2023/08/15 08:20:08;;;;;;;;;;;23.50;88.10;;;;;;5093640;28;19919;-70
2023/08/15 08:22:34;;;;;;;;;;;23.50;88.10;;;;;;5092462;28;20005;-70
2023/08/15 08:25:05;;;;;;;;;;;23.60;88.20;;;;;;5093998;28;19908;-70
2023/08/15 08:27:31;;;;;;;;;;;23.60;88.20;;;;;;5093838;28;20011;-71
2023/08/15 08:29:56;;;;;;;;;;;23.60;88.20;;;;;;5093362;28;19991;-71
2023/08/15 08:32:22;;;;;;;;;;;23.60;88.20;;;;;;5093626;28;19966;-70
2023/08/15 08:34:47;;;;;;;;;;;23.60;88.20;;;;;;5093425;28;19908;-71
2023/08/15 08:37:13;;;;;;;;;;;23.60;88.20;;;;;;5094169;28;20369;-70
2023/08/15 08:39:38;;;;;;;;;;;23.60;88.20;;;;;;5093492;28;19912;-71
2023/08/15 08:42:04;;;;;;;;;;;23.60;88.20;;;;;;5093527;28;19916;-71
2023/08/15 08:44:29;;;;;;;;;;;23.60;88.20;;;;;;5093056;28;19908;-70
2023/08/15 08:46:55;;;;;;;;;;;23.60;88.20;;;;;;5093382;28;19908;-70
2023/08/15 08:49:22;;;;;;;;;;;23.60;88.20;;;;;;5093553;28;20061;-69
2023/08/15 08:51:48;;;;;;;;;;;23.60;88.20;;;;;;5093195;28;19915;-69
2023/08/15 08:54:14;;;;;;;;;;;23.60;88.70;;;;;;5093091;28;19908;-69
2023/08/15 08:56:41;;;;;;;;;;;23.60;88.20;;;;;;5092098;28;19908;-70
2023/08/15 08:59:10;;;;;;;;;;;23.60;88.20;;;;;;5093715;28;19912;-70
2023/08/15 09:01:36;;;;;;;;;;;23.60;88.20;;;;;;5092835;28;19923;-72
2023/08/15 09:04:02;;;;;;;;;;;23.60;88.20;;;;;;5095418;28;20400;-72
2023/08/15 09:06:27;;;;;;;;;;;23.60;88.20;;;;;;5097292;28;19915;-72
2023/08/15 09:08:53;;;;;;;;;;;23.60;88.30;;;;;;5096680;28;19995;-72
2023/08/15 09:11:19;;;;;;;;;;;23.60;88.30;;;;;;5097020;28;19912;-72
2023/08/15 09:13:46;;;;;;;;;;;23.60;88.30;;;;;;5096907;28;19951;-72
2023/08/15 09:16:11;;;;;;;;;;;23.60;88.30;;;;;;5096323;28;20412;-72
2023/08/15 09:18:37;;;;;;;;;;;23.60;88.30;;;;;;5096866;28;19908;-72
2023/08/15 09:21:04;;;;;;;;;;;23.60;88.30;;;;;;5096687;28;19923;-73
2023/08/15 09:23:30;;;;;;;;;;;23.60;88.30;;;;;;5096758;28;19916;-71
2023/08/15 09:25:56;;;;;;;;;;;23.60;88.30;;;;;;5096605;28;19912;-72
2023/08/15 09:28:21;;;;;;;;;;;23.60;88.30;;;;;;5096652;28;20308;-71
2023/08/15 09:30:53;;;;;;;;;;;23.60;88.30;;;;;;5096664;28;19914;-70
2023/08/15 09:33:19;;;;;;;;;;;23.60;88.30;;;;;;5096240;28;19998;-71
2023/08/15 09:35:48;;;;;;;;;;;23.60;88.30;;;;;;5096206;28;20003;-71
2023/08/15 09:38:14;;;;;;;;;;;23.60;88.30;;;;;;5095198;28;19912;-70
2023/08/15 09:40:42;;;;;;;;;;;23.60;88.40;;;;;;5096331;28;19909;-71
2023/08/15 09:43:13;;;;;;;;;;;23.60;88.40;;;;;;5096020;28;20306;-71
2023/08/15 09:45:38;;;;;;;;;;;23.60;88.40;;;;;;5096544;28;19977;-69
2023/08/15 09:48:04;;;;;;;;;;;23.60;88.90;;;;;;5096383;28;19908;-70
2023/08/15 09:50:30;;;;;;;;;;;23.60;88.40;;;;;;5096222;28;19914;-71
2023/08/15 09:52:56;;;;;;;;;;;23.60;88.40;;;;;;5096318;28;19909;-70
2023/08/15 09:55:21;;;;;;;;;;;23.60;88.40;;;;;;5095952;28;19908;-70
2023/08/15 09:57:47;;;;;;;;;;;23.60;88.40;;;;;;5095755;28;19908;-70
2023/08/15 10:00:13;;;;;;;;;;;23.70;88.50;;;;;;5096161;28;20010;-70
2023/08/15 10:02:43;;;;;;;;;;;23.60;88.40;;;;;;5095852;28;19923;-71
2023/08/15 10:05:11;;;;;;;;;;;23.60;88.40;;;;;;5095642;28;19912;-71
2023/08/15 10:07:37;;;;;;;;;;;23.70;88.50;;;;;;5095952;28;20011;-71
2023/08/15 10:10:03;;;;;;;;;;;23.60;88.50;;;;;;5095546;28;19961;-71
2023/08/15 10:12:30;;;;;;;;;;;23.60;88.90;;;;;;5095283;28;19965;-71
2023/08/15 10:14:56;;;;;;;;;;;23.60;88.50;;;;;;5094897;28;20379;-73
2023/08/15 10:17:23;;;;;;;;;;;23.60;88.40;;;;;;5095764;28;19959;-72
2023/08/15 10:19:49;;;;;;;;;;;23.70;88.50;;;;;;5095817;28;19912;-70
2023/08/15 10:22:18;;;;;;;;;;;23.60;88.50;;;;;;5095334;28;20323;-70
2023/08/15 10:24:44;;;;;;;;;;;23.60;88.50;;;;;;5095542;28;19908;-69
2023/08/15 10:27:10;;;;;;;;;;;23.70;88.50;;;;;;5095645;28;20045;-70
2023/08/15 10:29:58;;;;;;;;;;;23.60;88.50;;;;;;5094491;28;19931;-70
2023/08/15 10:32:28;;;;;;;;;;;23.70;88.60;;;;;;5095853;28;20351;-70
2023/08/15 10:34:57;;;;;;;;;;;23.60;88.50;;;;;;5094635;28;19909;-70
2023/08/15 10:37:28;;;;;;;;;;;23.60;88.50;;;;;;5095020;28;19915;-70
2023/08/15 10:40:10;;;;;;;;;;;23.70;88.60;;;;;;5094900;28;20036;-70
2023/08/15 10:42:54;;;;;;;;;;;23.70;88.60;;;;;;5094641;28;19916;-71
2023/08/15 10:45:20;;;;;;;;;;;23.70;88.60;;;;;;5094519;28;19962;-70
2023/08/15 10:47:45;;;;;;;;;;;23.70;88.60;;;;;;5095051;28;19912;-70
2023/08/15 10:50:11;;;;;;;;;;;23.70;88.60;;;;;;5095162;28;20045;-70
2023/08/15 10:52:39;;;;;;;;;;;23.70;88.60;;;;;;5095150;28;19950;-71
2023/08/15 10:55:04;;;;;;;;;;;23.70;88.60;;;;;;5094977;28;19908;-70
2023/08/15 10:57:31;;;;;;;;;;;23.70;88.60;;;;;;5094935;28;19907;-71
2023/08/15 10:59:57;;;;;;;;;;;23.70;89.20;;;;;;5094577;28;19944;-71
2023/08/15 11:02:22;;;;;;;;;;;23.70;88.60;;;;;;5094690;28;19982;-71
2023/08/15 11:04:48;;;;;;;;;;;23.70;88.70;;;;;;5094443;28;20363;-71
2023/08/15 11:07:23;;;;;;;;;;;23.70;88.60;;;;;;5095011;28;19908;-70
2023/08/15 11:09:50;;;;;;;;;;;23.70;88.70;;;;;;5094507;28;19912;-71
2023/08/15 11:12:15;;;;;;;;;;;23.70;88.70;;;;;;5094536;28;19908;-70
2023/08/15 11:14:41;;;;;;;;;;;23.70;88.70;;;;;;5094999;28;19908;-70
2023/08/15 11:17:06;;;;;;;;;;;23.70;88.70;;;;;;5094674;28;19918;-70
2023/08/15 11:19:33;;;;;;;;;;;23.70;88.70;;;;;;5094246;28;19915;-70
2023/08/15 11:21:58;;;;;;;;;;;23.70;88.70;;;;;;5094532;28;19916;-71
2023/08/15 11:24:29;;;;;;;;;;;23.70;88.70;;;;;;5094306;28;19933;-71
2023/08/15 11:26:57;;;;;;;;;;;23.70;88.70;;;;;;5094341;28;19909;-71
2023/08/15 11:29:22;;;;;;;;;;;23.70;88.70;;;;;;5094535;28;19915;-70
2023/08/15 11:31:48;;;;;;;;;;;23.70;88.70;;;;;;5094200;28;20387;-70
2023/08/15 11:34:14;;;;;;;;;;;23.70;88.70;;;;;;5094019;28;19961;-70
2023/08/15 11:36:40;;;;;;;;;;;23.70;88.70;;;;;;5094211;28;20029;-70
2023/08/15 11:39:10;;;;;;;;;;;23.70;88.70;;;;;;5094168;28;20388;-72
2023/08/15 11:41:36;;;;;;;;;;;23.70;88.70;;;;;;5093835;28;19916;-71
2023/08/15 11:44:03;;;;;;;;;;;23.70;88.80;;;;;;5094198;28;20362;-70
2023/08/15 11:46:28;;;;;;;;;;;23.70;88.70;;;;;;5094282;28;19928;-70
2023/08/15 11:48:54;;;;;;;;;;;23.70;88.70;;;;;;5093986;28;20400;-70
2023/08/15 11:51:20;;;;;;;;;;;23.70;88.80;;;;;;5094206;28;19966;-70
2023/08/15 11:53:52;;;;;;;;;;;23.70;88.80;;;;;;5094067;28;19917;-72
2023/08/15 11:56:18;;;;;;;;;;;23.70;88.80;;;;;;5093894;28;20496;-70
2023/08/15 11:58:44;;;;;;;;;;;23.70;88.80;;;;;;5093808;28;19921;-70
2023/08/15 12:01:11;;;;;;;;;;;23.70;88.80;;;;;;5094192;28;19958;-70
2023/08/15 12:03:37;;;;;;;;;;;23.70;88.80;;;;;;5093614;28;19944;-70
2023/08/15 12:06:06;;;;;;;;;;;23.70;88.80;;;;;;5094093;28;20317;-70
2023/08/15 12:08:32;;;;;;;;;;;23.70;88.80;;;;;;5094069;28;19924;-70
2023/08/15 12:10:59;;;;;;;;;;;23.70;88.80;;;;;;5093989;28;20259;-70
2023/08/15 12:13:28;;;;;;;;;;;23.70;88.80;;;;;;5094309;28;19909;-70
2023/08/15 12:15:54;;;;;;;;;;;23.70;88.80;;;;;;5093849;28;20011;-70
2023/08/15 12:18:20;;;;;;;;;;;23.70;89.30;;;;;;5093662;28;19943;-70
2023/08/15 12:20:45;;;;;;;;;;;23.70;88.80;;;;;;5093598;28;19954;-70
2023/08/15 12:23:11;;;;;;;;;;;23.70;88.80;;;;;;5092599;28;19908;-70
2023/08/15 12:25:36;;;;;;;;;;;23.70;88.80;;;;;;5093797;28;20274;-70
2023/08/15 12:28:02;;;;;;;;;;;23.70;88.80;;;;;;5093594;28;19908;-70
2023/08/15 12:30:27;;;;;;;;;;;23.70;88.80;;;;;;5093588;28;20405;-70
2023/08/15 12:32:53;;;;;;;;;;;23.70;88.80;;;;;;5093364;28;19948;-70
2023/08/15 12:35:18;;;;;;;;;;;23.70;88.80;;;;;;5093991;28;19912;-70
2023/08/15 12:37:44;;;;;;;;;;;23.80;88.80;;;;;;5095414;28;19908;-70
2023/08/15 12:40:10;;;;;;;;;;;23.70;88.80;;;;;;5097637;28;20262;-70
2023/08/15 12:42:35;;;;;;;;;;;23.70;88.80;;;;;;5097112;28;19916;-70
2023/08/15 12:45:01;;;;;;;;;;;23.80;88.80;;;;;;5097245;28;19963;-70
2023/08/15 12:47:26;;;;;;;;;;;23.80;88.80;;;;;;5097524;28;20019;-70
2023/08/15 12:49:52;;;;;;;;;;;23.80;88.80;;;;;;5097550;28;19915;-70
2023/08/15 12:52:17;;;;;;;;;;;23.80;88.80;;;;;;5097563;28;19908;-70
2023/08/15 12:54:42;;;;;;;;;;;23.80;88.80;;;;;;5097122;28;19908;-69
2023/08/15 12:57:08;;;;;;;;;;;23.80;88.80;;;;;;5097517;28;20011;-70
2023/08/15 12:59:33;;;;;;;;;;;23.80;88.90;;;;;;5097302;28;19912;-70
2023/08/15 13:01:59;;;;;;;;;;;23.80;88.80;;;;;;5097051;28;19924;-70
2023/08/15 13:04:24;;;;;;;;;;;23.80;88.80;;;;;;5097489;28;19908;-70
2023/08/15 13:06:50;;;;;;;;;;;23.80;88.80;;;;;;5096845;28;20378;-70
2023/08/15 13:09:16;;;;;;;;;;;23.80;88.80;;;;;;5097030;28;19931;-70
2023/08/15 13:11:41;;;;;;;;;;;23.80;88.80;;;;;;5097036;28;19915;-70
2023/08/15 13:14:07;;;;;;;;;;;23.80;88.80;;;;;;5097234;28;20374;-70
2023/08/15 13:16:33;;;;;;;;;;;23.80;88.80;;;;;;5096964;28;20294;-70
2023/08/15 13:18:58;;;;;;;;;;;23.80;88.80;;;;;;5097057;28;20089;-70
2023/08/15 13:21:30;;;;;;;;;;;23.80;88.80;;;;;;5096789;28;20061;-70
2023/08/15 13:23:55;;;;;;;;;;;23.80;89.40;;;;;;5096937;28;19995;-70
2023/08/15 13:26:21;;;;;;;;;;;23.80;88.90;;;;;;5096443;28;20012;-70
2023/08/15 13:28:48;;;;;;;;;;;23.80;88.90;;;;;;5096344;28;20363;-70
2023/08/15 13:31:13;;;;;;;;;;;23.80;88.90;;;;;;5096419;28;20378;-69
2023/08/15 13:33:39;;;;;;;;;;;23.80;88.90;;;;;;5096724;28;19912;-70
2023/08/15 13:36:05;;;;;;;;;;;23.80;88.90;;;;;;5096199;28;20020;-70
2023/08/15 13:38:30;;;;;;;;;;;23.80;88.90;;;;;;5096352;28;19915;-70
2023/08/15 13:40:56;;;;;;;;;;;23.80;88.90;;;;;;5096157;28;19908;-70
2023/08/15 13:43:21;;;;;;;;;;;23.80;88.90;;;;;;5095196;28;19909;-69
2023/08/15 13:45:46;;;;;;;;;;;23.80;88.90;;;;;;5096275;28;19920;-70
2023/08/15 13:48:12;;;;;;;;;;;23.80;88.90;;;;;;5078361;28;19933;-70
2023/08/15 13:50:37;;;;;;;;;;;23.80;89.00;;;;;;5095735;28;20372;-69
2023/08/15 13:53:03;;;;;;;;;;;23.80;89.00;;;;;;5096316;28;19908;-70
2023/08/15 13:55:29;;;;;;;;;;;23.80;89.00;;;;;;5096186;28;19912;-70
2023/08/15 13:57:54;;;;;;;;;;;23.80;89.00;;;;;;5096281;28;19950;-70
2023/08/15 14:00:20;;;;;;;;;;;23.80;89.00;;;;;;5096229;28;20049;-70
2023/08/15 14:02:45;;;;;;;;;;;23.80;89.00;;;;;;5095700;28;19917;-70
2023/08/15 14:05:11;;;;;;;;;;;23.80;89.00;;;;;;5095864;28;19916;-70
2023/08/15 14:07:36;;;;;;;;;;;23.80;89.00;;;;;;5095796;28;19908;-70
2023/08/15 14:10:03;;;;;;;;;;;23.80;89.00;;;;;;5095681;28;19909;-70